Time;durP1;ratioP1;P1;durP2;ratioP2;P2;SDS_P1;SDS_P2;PMS_P1;PMS_P2;Temp;Humidity;BMP_temperature;BMP_pressure;BME280_temperature;BME280_humidity;BME280_pressure;Samples;Min_cycle;Max_cycle;Signal;HPM_P1;HPM_P2
2022/11/06 00:00:24;;;;;;;;;;;;;;;20.59;47.34;101259.44;5121721;28;19980;-37
2022/11/06 00:02:50;;;;;;;;;;;;;;;20.61;47.36;101254.47;5126890;28;19932;-36
2022/11/06 00:08:01;;;;;;;;;;;;;;;20.61;47.27;101248.13;5107628;28;21191;-37
2022/11/06 00:10:28;;;;;;;;;;;;;;;20.62;47.43;101247.00;5126182;28;19947;-37
2022/11/06 00:12:54;;;;;;;;;;;;;;;20.61;47.73;101250.88;5108724;28;20354;-37
2022/11/06 00:15:19;;;;;;;;;;;;;;;20.60;47.56;101247.28;5120426;28;19924;-37
2022/11/06 00:17:47;;;;;;;;;;;;;;;20.61;47.50;101248.13;5127257;28;19923;-37
2022/11/06 00:20:12;;;;;;;;;;;;;;;20.61;47.61;101248.94;5108563;28;20425;-37
2022/11/06 00:22:38;;;;;;;;;;;;;;;20.61;48.20;101245.34;5127336;28;19927;-37
2022/11/06 00:25:04;;;;;;;;;;;;;;;20.60;47.52;101247.28;5123355;28;20295;-37
2022/11/06 00:27:29;;;;;;;;;;;;;;;20.61;47.36;101254.47;5119178;28;19923;-37
2022/11/06 00:29:55;;;;;;;;;;;;;;;20.61;47.66;101246.19;5124283;28;19923;-37
2022/11/06 00:32:20;;;;;;;;;;;;;;;20.61;47.44;101242.59;5120574;28;21186;-37
2022/11/06 00:34:46;;;;;;;;;;;;;;;20.62;48.14;101244.22;5123618;28;19976;-37
2022/11/06 00:37:12;;;;;;;;;;;;;;;20.61;47.55;101237.06;5103412;28;20399;-37
2022/11/06 00:39:37;;;;;;;;;;;;;;;20.62;47.40;101233.16;5108684;28;19931;-37
2022/11/06 00:42:03;;;;;;;;;;;;;;;20.61;47.56;101226.81;5122651;28;19930;-37
2022/11/06 00:44:29;;;;;;;;;;;;;;;20.60;47.38;101222.38;5124255;28;20337;-37
2022/11/06 00:46:54;;;;;;;;;;;;;;;20.61;48.02;101218.50;5122671;28;19932;-37
2022/11/06 00:49:20;;;;;;;;;;;;;;;20.60;47.50;101222.38;5126726;28;19923;-37
2022/11/06 00:51:45;;;;;;;;;;;;;;;20.62;47.62;101233.16;5121735;27;19934;-37
2022/11/06 00:54:11;;;;;;;;;;;;;;;20.61;47.39;101225.97;5120559;27;20373;-37
2022/11/06 00:56:37;;;;;;;;;;;;;;;20.60;47.39;101222.38;5106003;28;19924;-37
2022/11/06 00:59:04;;;;;;;;;;;;;;;20.60;47.44;101219.63;5122408;28;20416;-37
2022/11/06 01:01:30;;;;;;;;;;;;;;;20.61;47.80;101217.69;5124466;27;19985;-36
2022/11/06 01:03:57;;;;;;;;;;;;;;;20.61;48.11;101226.81;5101063;28;19923;-37
2022/11/06 01:06:23;;;;;;;;;;;;;;;20.61;47.53;101224.03;5107583;28;19974;-37
2022/11/06 01:08:49;;;;;;;;;;;;;;;20.61;47.35;101229.56;5109079;28;19934;-37
2022/11/06 01:11:16;;;;;;;;;;;;;;;20.61;48.19;101229.56;5108291;28;20015;-37
2022/11/06 01:13:42;;;;;;;;;;;;;;;20.61;47.77;101229.56;5106323;28;20059;-37
2022/11/06 01:16:08;;;;;;;;;;;;;;;20.60;47.59;101225.16;5125846;28;20287;-37
2022/11/06 01:18:35;;;;;;;;;;;;;;;20.61;47.72;101225.97;5107664;28;20010;-37
2022/11/06 01:21:02;;;;;;;;;;;;;;;20.60;47.93;101224.34;5105074;28;19931;-37
2022/11/06 01:23:28;;;;;;;;;;;;;;;20.60;47.52;101222.38;5107809;28;20010;-37
2022/11/06 01:25:55;;;;;;;;;;;;;;;20.61;47.27;101218.50;5119597;28;20243;-37
2022/11/06 01:28:21;;;;;;;;;;;;;;;20.61;47.42;101225.97;5106436;28;20014;-36
2022/11/06 01:30:46;;;;;;;;;;;;;;;20.62;47.36;101216.56;5122187;28;20275;-37
2022/11/06 01:33:12;;;;;;;;;;;;;;;20.61;47.46;101218.50;5123779;28;19923;-37
2022/11/06 01:35:43;;;;;;;;;;;;;;;20.60;48.03;101216.84;5119998;28;19924;-37
2022/11/06 01:38:08;;;;;;;;;;;;;;;20.60;47.56;101218.81;5124704;28;20025;-37
2022/11/06 01:40:42;;;;;;;;;;;;;;;20.59;47.34;101209.63;5124144;28;19939;-37
2022/11/06 01:43:10;;;;;;;;;;;;;;;20.59;47.50;101206.88;5105404;28;20038;-37
2022/11/06 01:45:36;;;;;;;;;;;;;;;20.60;47.46;101208.56;5100559;28;20024;-37
2022/11/06 01:48:02;;;;;;;;;;;;;;;20.60;47.53;101205.78;5126027;28;20014;-37
2022/11/06 01:50:28;;;;;;;;;;;;;;;20.61;47.33;101201.91;5124503;28;19923;-37
2022/11/06 01:52:53;;;;;;;;;;;;;;;20.61;47.45;101199.13;5122757;28;20264;-37
2022/11/06 01:55:22;;;;;;;;;;;;;;;20.60;47.39;101193.91;5123105;27;19931;-36
2022/11/06 01:57:47;;;;;;;;;;;;;;;20.62;47.47;101194.44;5124781;28;20018;-37
2022/11/06 02:00:13;;;;;;;;;;;;;;;20.61;47.36;101195.53;5123700;28;20273;-37
2022/11/06 02:02:38;;;;;;;;;;;;;;;20.60;47.57;101193.91;5121923;28;19928;-37
2022/11/06 02:05:05;;;;;;;;;;;;;;;20.61;47.47;101190.00;5122645;28;19924;-37
2022/11/06 02:07:30;;;;;;;;;;;;;;;20.61;47.50;101190.00;5105955;28;20329;-37
2022/11/06 02:09:56;;;;;;;;;;;;;;;20.60;47.36;101182.81;5126239;28;19927;-37
2022/11/06 02:12:41;;;;;;;;;;;;;;;20.60;47.45;101188.38;5122444;28;19931;-37
2022/11/06 02:15:11;;;;;;;;;;;;;;;20.60;47.46;101194.72;5108743;28;20022;-37
2022/11/06 02:17:47;;;;;;;;;;;;;;;20.60;47.67;101188.38;5126136;28;19962;-37
2022/11/06 02:20:17;;;;;;;;;;;;;;;20.61;47.60;101182.53;5121980;28;19981;-37
2022/11/06 02:22:50;;;;;;;;;;;;;;;20.59;47.81;101181.16;5118789;28;20014;-37
2022/11/06 02:25:28;;;;;;;;;;;;;;;20.60;47.64;101182.81;5118611;28;19966;-37
2022/11/06 02:27:57;;;;;;;;;;;;;;;20.61;47.38;101181.72;5121289;28;19966;-37
2022/11/06 02:30:22;;;;;;;;;;;;;;;20.59;47.32;101179.19;5121809;28;20147;-37
2022/11/06 02:33:04;;;;;;;;;;;;;;;20.60;47.34;101180.06;5123668;28;19923;-37
2022/11/06 02:35:31;;;;;;;;;;;;;;;20.58;47.38;101179.50;5123202;28;20010;-39
2022/11/06 02:37:59;;;;;;;;;;;;;;;20.59;47.30;101168.13;5122233;28;20018;-37
2022/11/06 02:40:25;;;;;;;;;;;;;;;20.59;47.45;101170.91;5101429;28;20010;-37
2022/11/06 02:42:52;;;;;;;;;;;;;;;20.59;47.31;101176.44;5122336;28;20089;-37
2022/11/06 02:45:17;;;;;;;;;;;;;;;20.59;47.33;101165.38;5121537;28;20410;-37
2022/11/06 02:47:43;;;;;;;;;;;;;;;20.59;47.31;101159.00;5119119;28;19938;-37
2022/11/06 02:50:11;;;;;;;;;;;;;;;20.58;47.37;101149.06;5122489;27;20011;-37
2022/11/06 02:52:38;;;;;;;;;;;;;;;20.60;47.42;101144.91;5121956;28;19976;-37
2022/11/06 02:55:08;;;;;;;;;;;;;;;20.59;47.51;101151.53;5118295;27;19978;-37
2022/11/06 02:57:35;;;;;;;;;;;;;;;20.59;47.48;101157.06;5105356;28;20026;-37
2022/11/06 03:00:02;;;;;;;;;;;;;;;20.59;47.42;101150.72;5117833;28;19980;-37
2022/11/06 03:02:29;;;;;;;;;;;;;;;20.59;47.45;101154.31;5126019;28;19931;-37
2022/11/06 03:05:12;;;;;;;;;;;;;;;20.59;47.60;101153.47;5117246;28;20328;-37
2022/11/06 03:07:42;;;;;;;;;;;;;;;20.58;47.59;101141.59;5108057;28;19962;-37
2022/11/06 03:10:07;;;;;;;;;;;;;;;20.58;47.45;101138.81;5106057;28;20459;-36
2022/11/06 03:12:37;;;;;;;;;;;;;;;20.59;47.47;101136.88;5118622;28;20132;-37
2022/11/06 03:15:06;;;;;;;;;;;;;;;20.59;47.34;101134.09;5121792;28;20007;-37
2022/11/06 03:17:37;;;;;;;;;;;;;;;20.59;47.60;101132.16;5123813;28;20279;-37
2022/11/06 03:20:15;;;;;;;;;;;;;;;20.58;47.64;101136.06;5105070;28;19951;-37
2022/11/06 03:22:51;;;;;;;;;;;;;;;20.60;47.93;101135.78;5120375;28;19950;-36
2022/11/06 03:25:21;;;;;;;;;;;;;;;20.59;48.40;101143.22;5117975;27;20343;-37
2022/11/06 03:27:49;;;;;;;;;;;;;;;20.59;48.24;101143.22;5104032;28;19966;-37
2022/11/06 03:30:14;;;;;;;;;;;;;;;20.61;47.79;101142.97;5126237;28;19959;-37
2022/11/06 03:32:50;;;;;;;;;;;;;;;20.59;48.51;101143.22;5126534;28;19938;-37
2022/11/06 03:35:34;;;;;;;;;;;;;;;20.60;47.95;101153.22;5104472;28;20018;-37
2022/11/06 03:38:20;;;;;;;;;;;;;;;20.58;48.42;101152.66;5126319;28;19961;-37
2022/11/06 03:40:46;;;;;;;;;;;;;;;20.59;47.97;101153.47;5109213;28;20007;-37
2022/11/06 03:43:12;;;;;;;;;;;;;;;20.60;47.87;101160.69;5128705;28;19996;-37
2022/11/06 03:45:38;;;;;;;;;;;;;;;20.57;48.45;101156.53;5126727;28;20405;-36
2022/11/06 03:48:12;;;;;;;;;;;;;;;20.58;48.39;101151.81;5125881;28;19923;-37
2022/11/06 03:50:39;;;;;;;;;;;;;;;20.59;48.21;101156.25;5126563;27;19999;-37
2022/11/06 03:53:09;;;;;;;;;;;;;;;20.60;47.83;101150.44;5105445;28;20026;-37
2022/11/06 03:55:38;;;;;;;;;;;;;;;20.59;48.47;101140.47;5115161;27;20347;-37
2022/11/06 03:58:05;;;;;;;;;;;;;;;20.58;48.25;101147.13;5123483;28;19974;-37
2022/11/06 04:00:31;;;;;;;;;;;;;;;20.59;48.67;101139.63;5129332;28;19923;-37
2022/11/06 04:03:03;;;;;;;;;;;;;;;20.58;47.49;101124.97;5103486;28;19975;-37
2022/11/06 04:05:30;;;;;;;;;;;;;;;20.59;48.65;101139.63;5123550;28;19927;-37
2022/11/06 04:14:00;;;;;;;;;;;;;;;20.60;47.76;101130.25;5111204;28;20367;-37
2022/11/06 04:16:14;;;;;;;;;;;;;;;20.60;47.78;101133.03;5088465;28;19965;-37
2022/11/06 04:18:39;;;;;;;;;;;;;;;20.59;47.99;101132.16;5126094;28;19928;-37
2022/11/06 04:21:27;;;;;;;;;;;;;;;20.59;48.36;101125.81;5122644;28;19928;-37
2022/11/06 04:32:26;;;;;;;;;;;;;;;20.59;48.42;101106.44;5166607;27;19933;-35
2022/11/06 04:35:02;;;;;;;;;;;;;;;20.60;48.17;101113.66;5141844;27;20070;-34
2022/11/06 04:37:47;;;;;;;;;;;;;;;20.58;48.68;101102.84;5143029;27;20051;-34
2022/11/06 04:40:17;;;;;;;;;;;;;;;20.58;48.49;101102.84;5143347;27;20061;-34
2022/11/06 04:42:49;;;;;;;;;;;;;;;20.59;47.96;101098.13;5124787;27;20418;-34
2022/11/06 04:45:16;;;;;;;;;;;;;;;20.60;48.43;101102.59;5127374;27;20676;-34
2022/11/06 04:47:42;;;;;;;;;;;;;;;20.57;48.54;101090.13;5146545;27;19923;-34
2022/11/06 04:50:07;;;;;;;;;;;;;;;20.58;48.38;101089.00;5142975;27;20283;-34
2022/11/06 04:52:33;;;;;;;;;;;;;;;20.59;48.51;101076.00;5141876;27;19924;-34
2022/11/06 04:54:58;;;;;;;;;;;;;;;20.58;48.39;101068.81;5141554;27;19928;-34
2022/11/06 04:57:24;;;;;;;;;;;;;;;20.58;48.75;101066.88;5144584;27;19923;-34
2022/11/06 04:59:49;;;;;;;;;;;;;;;20.58;48.40;101058.56;5143520;27;19975;-36
2022/11/06 05:02:15;;;;;;;;;;;;;;;20.58;48.42;101041.97;5144596;27;19924;-35
2022/11/06 05:04:40;;;;;;;;;;;;;;;20.58;48.06;101041.16;5140089;27;19942;-34
2022/11/06 05:07:06;;;;;;;;;;;;;;;20.58;48.79;101041.97;5143984;27;20341;-34
2022/11/06 05:09:32;;;;;;;;;;;;;;;20.58;48.70;101043.91;5143485;27;19931;-34
2022/11/06 05:11:57;;;;;;;;;;;;;;;20.58;48.24;101036.44;5143924;27;19927;-35
2022/11/06 05:14:23;;;;;;;;;;;;;;;20.58;48.85;101030.09;5141031;27;20111;-34
2022/11/06 05:16:48;;;;;;;;;;;;;;;20.59;48.59;101024.25;5133267;27;19923;-34
2022/11/06 05:19:14;;;;;;;;;;;;;;;20.59;48.44;101026.19;5120504;28;19924;-34
2022/11/06 05:24:25;;;;;;;;;;;;;;;20.58;48.00;101025.38;5126004;27;19931;-34
2022/11/06 05:26:50;;;;;;;;;;;;;;;20.58;48.61;101019.03;5142538;27;19930;-34
2022/11/06 05:29:24;;;;;;;;;;;;;;;20.57;48.65;101020.97;5143613;27;19924;-35
2022/11/06 05:31:49;;;;;;;;;;;;;;;20.57;48.58;101020.97;5143104;27;19923;-34
2022/11/06 05:34:15;;;;;;;;;;;;;;;20.58;48.12;101013.47;5140484;27;20263;-34
2022/11/06 05:36:40;;;;;;;;;;;;;;;20.57;48.65;101007.13;5139923;27;19935;-34
2022/11/06 05:39:06;;;;;;;;;;;;;;;20.57;47.67;101014.59;5141837;27;19988;-35
2022/11/06 05:41:32;;;;;;;;;;;;;;;20.57;48.50;101026.50;5142802;27;19927;-34
2022/11/06 05:43:57;;;;;;;;;;;;;;;20.57;48.60;101020.13;5129357;28;19930;-35
2022/11/06 05:46:23;;;;;;;;;;;;;;;20.57;48.28;101009.91;5125703;28;21100;-34
2022/11/06 05:49:08;;;;;;;;;;;;;;;20.58;47.94;101010.72;5113814;28;19934;-34
2022/11/06 05:51:34;;;;;;;;;;;;;;;20.57;48.02;101004.34;5128309;28;19931;-35
2022/11/06 05:54:00;;;;;;;;;;;;;;;20.57;48.57;100998.81;5129304;27;20427;-34
2022/11/06 05:56:25;;;;;;;;;;;;;;;20.57;48.54;101007.13;5126054;28;20453;-34
2022/11/06 05:58:51;;;;;;;;;;;;;;;20.57;48.54;101001.59;5129776;28;19923;-34
2022/11/06 06:01:16;;;;;;;;;;;;;;;20.58;48.56;100999.66;5129741;28;19944;-34
2022/11/06 06:03:42;;;;;;;;;;;;;;;20.57;48.73;100998.81;5126835;28;19923;-34
2022/11/06 06:06:07;;;;;;;;;;;;;;;20.57;48.80;101001.59;5124198;28;19927;-34
2022/11/06 06:08:33;;;;;;;;;;;;;;;20.57;47.92;100990.53;5129194;28;19923;-35
2022/11/06 06:10:59;;;;;;;;;;;;;;;20.57;48.45;100992.47;5127740;28;19924;-34
2022/11/06 06:13:24;;;;;;;;;;;;;;;20.56;47.81;100991.66;5128836;28;19923;-34
2022/11/06 06:15:50;;;;;;;;;;;;;;;20.56;47.81;100983.34;5126025;28;19924;-34
2022/11/06 06:18:15;;;;;;;;;;;;;;;20.57;48.85;100971.16;5128066;28;19936;-34
2022/11/06 06:20:41;;;;;;;;;;;;;;;20.57;47.94;100973.09;5127264;28;19955;-34
2022/11/06 06:23:08;;;;;;;;;;;;;;;20.57;48.63;100971.16;5110678;28;19932;-34
2022/11/06 06:25:35;;;;;;;;;;;;;;;20.57;48.09;100971.16;5125548;28;19991;-35
2022/11/06 06:28:00;;;;;;;;;;;;;;;20.56;48.78;100966.75;5127923;28;19923;-35
2022/11/06 06:30:26;;;;;;;;;;;;;;;20.57;48.42;100968.41;5127678;28;19942;-34
2022/11/06 06:32:51;;;;;;;;;;;;;;;20.57;48.83;100973.09;5128612;28;20286;-34
2022/11/06 06:35:17;;;;;;;;;;;;;;;20.57;48.50;100979.47;5125970;28;19923;-34
2022/11/06 06:37:49;;;;;;;;;;;;;;;20.57;48.66;100982.22;5128271;28;20356;-34
2022/11/06 06:40:14;;;;;;;;;;;;;;;20.56;48.72;100988.88;5109758;28;20014;-34
2022/11/06 06:42:40;;;;;;;;;;;;;;;20.57;48.70;100984.16;5123533;28;19943;-34
2022/11/06 06:45:05;;;;;;;;;;;;;;;20.57;48.27;100982.22;5125121;28;19976;-34
2022/11/06 06:47:31;;;;;;;;;;;;;;;20.57;48.31;100998.81;5125811;27;20363;-35
2022/11/06 06:49:56;;;;;;;;;;;;;;;20.57;48.77;101001.59;5128463;28;19927;-34
2022/11/06 06:52:22;;;;;;;;;;;;;;;20.56;48.67;101002.72;5126990;28;19924;-34
2022/11/06 06:54:47;;;;;;;;;;;;;;;20.57;48.72;101000.78;5125277;27;19923;-35
2022/11/06 06:57:13;;;;;;;;;;;;;;;20.56;48.01;100991.66;5127824;28;19935;-35
2022/11/06 06:59:38;;;;;;;;;;;;;;;20.58;48.62;100999.66;5128530;28;20279;-34
2022/11/06 07:02:04;;;;;;;;;;;;;;;20.57;48.65;100998.00;5129007;28;19931;-35
2022/11/06 07:04:30;;;;;;;;;;;;;;;20.57;48.29;100995.25;5126166;28;19941;-35
2022/11/06 07:06:55;;;;;;;;;;;;;;;20.56;48.75;100997.19;5124518;28;20047;-34
2022/11/06 07:09:22;;;;;;;;;;;;;;;20.57;48.49;100998.81;5126732;28;20390;-35
2022/11/06 07:11:48;;;;;;;;;;;;;;;20.57;48.65;100996.06;5128148;28;20019;-34
2022/11/06 07:14:13;;;;;;;;;;;;;;;20.56;48.74;100986.13;5126576;28;19927;-34
2022/11/06 07:16:39;;;;;;;;;;;;;;;20.57;48.61;101000.78;5106382;28;20298;-34
2022/11/06 07:19:04;;;;;;;;;;;;;;;20.57;48.87;100989.72;5128040;28;19923;-34
2022/11/06 07:21:30;;;;;;;;;;;;;;;20.57;48.86;101000.78;5126949;28;19924;-34
2022/11/06 07:23:55;;;;;;;;;;;;;;;20.56;48.77;100997.19;5127972;28;19923;-34
2022/11/06 07:26:21;;;;;;;;;;;;;;;20.57;48.51;101001.59;5125011;28;19931;-34
2022/11/06 07:28:47;;;;;;;;;;;;;;;20.57;48.69;101000.78;5124266;28;20401;-35
2022/11/06 07:31:12;;;;;;;;;;;;;;;20.56;48.07;100996.38;5126626;28;19923;-35
2022/11/06 07:33:38;;;;;;;;;;;;;;;20.57;48.72;101000.78;5125403;28;19927;-35
2022/11/06 07:36:04;;;;;;;;;;;;;;;20.56;48.59;100990.81;5108027;28;19927;-34
2022/11/06 07:38:31;;;;;;;;;;;;;;;20.56;48.86;100991.66;5122799;28;19966;-34
2022/11/06 07:40:59;;;;;;;;;;;;;;;20.57;48.53;101000.78;5108918;28;19966;-34
2022/11/06 07:43:26;;;;;;;;;;;;;;;20.56;48.67;100997.19;5108884;28;20321;-35
2022/11/06 07:45:52;;;;;;;;;;;;;;;20.55;48.61;100989.97;5123656;27;20019;-34
2022/11/06 07:48:17;;;;;;;;;;;;;;;20.56;48.68;100988.88;5126884;27;20291;-34
2022/11/06 07:50:43;;;;;;;;;;;;;;;20.56;48.72;100999.13;5123603;28;21221;-34
2022/11/06 07:53:08;;;;;;;;;;;;;;;20.56;48.87;100994.41;5127753;28;19927;-34
2022/11/06 07:55:34;;;;;;;;;;;;;;;20.56;48.69;100985.28;5124344;28;19950;-34
2022/11/06 07:58:07;;;;;;;;;;;;;;;20.55;48.90;100998.28;5126870;28;19934;-34
2022/11/06 08:00:32;;;;;;;;;;;;;;;20.56;48.73;100985.28;5127414;28;19924;-35
2022/11/06 08:02:58;;;;;;;;;;;;;;;20.54;48.01;100983.63;5124536;28;19943;-34
2022/11/06 08:05:23;;;;;;;;;;;;;;;20.56;48.73;100982.53;5121305;27;19927;-34
2022/11/06 08:07:54;;;;;;;;;;;;;;;20.54;48.90;100974.50;5126821;28;19928;-34
2022/11/06 08:10:19;;;;;;;;;;;;;;;20.56;48.84;100982.53;5125820;28;19928;-34
2022/11/06 08:12:45;;;;;;;;;;;;;;;20.54;48.77;100980.03;5126861;28;19968;-34
2022/11/06 08:15:11;;;;;;;;;;;;;;;20.56;48.87;100974.22;5120710;28;19923;-34
2022/11/06 08:17:36;;;;;;;;;;;;;;;20.56;48.15;100982.53;5124217;28;19927;-34
2022/11/06 08:20:02;;;;;;;;;;;;;;;20.56;48.42;100977.00;5124917;28;19923;-34
2022/11/06 08:22:27;;;;;;;;;;;;;;;20.56;48.77;100980.59;5107743;28;19942;-34
2022/11/06 08:24:53;;;;;;;;;;;;;;;20.55;48.72;100973.38;5125210;28;19931;-34
2022/11/06 08:27:18;;;;;;;;;;;;;;;20.54;48.78;100977.25;5119550;28;19980;-34
2022/11/06 08:29:44;;;;;;;;;;;;;;;20.56;48.87;100979.75;5125252;28;19927;-34
2022/11/06 08:32:10;;;;;;;;;;;;;;;20.56;48.71;100971.47;5125758;28;19923;-34
2022/11/06 08:34:35;;;;;;;;;;;;;;;20.54;48.76;100963.44;5126456;28;20306;-34
2022/11/06 08:37:01;;;;;;;;;;;;;;;20.55;48.69;100956.78;5124262;28;19942;-34
2022/11/06 08:39:26;;;;;;;;;;;;;;;20.56;48.78;100963.16;5125326;28;19932;-35
2022/11/06 08:41:52;;;;;;;;;;;;;;;20.56;48.90;100957.63;5122383;28;19949;-34
2022/11/06 08:44:17;;;;;;;;;;;;;;;20.54;48.79;100944.88;5121985;28;20295;-34
2022/11/06 08:46:43;;;;;;;;;;;;;;;20.56;48.81;100952.09;5126368;27;19931;-34
2022/11/06 08:49:16;;;;;;;;;;;;;;;20.55;48.73;100948.47;5126596;28;20390;-34
2022/11/06 08:51:42;;;;;;;;;;;;;;;20.54;48.54;100941.28;5121528;28;19931;-34
2022/11/06 08:54:08;;;;;;;;;;;;;;;20.53;48.77;100940.47;5126388;28;19924;-34
2022/11/06 08:56:34;;;;;;;;;;;;;;;20.54;48.90;100936.59;5124583;28;19934;-34
2022/11/06 08:59:00;;;;;;;;;;;;;;;20.56;48.68;100939.09;5123634;28;19923;-34
2022/11/06 09:01:25;;;;;;;;;;;;;;;20.55;49.05;100937.41;5123665;28;19938;-34
2022/11/06 09:03:51;;;;;;;;;;;;;;;20.53;48.80;100931.34;5127263;28;20299;-34
2022/11/06 09:06:17;;;;;;;;;;;;;;;20.56;48.77;100924.44;5125429;28;19942;-34
2022/11/06 09:08:42;;;;;;;;;;;;;;;20.54;48.70;100919.16;5126997;28;20447;-34
2022/11/06 09:11:09;;;;;;;;;;;;;;;20.53;48.68;100921.09;5124184;28;19955;-34
2022/11/06 09:13:35;;;;;;;;;;;;;;;20.53;48.93;100910.03;5127422;28;20022;-34
2022/11/06 09:16:01;;;;;;;;;;;;;;;20.53;48.71;100903.69;5120968;28;19992;-34
2022/11/06 09:18:26;;;;;;;;;;;;;;;20.53;48.89;100907.28;5128610;27;19966;-33
2022/11/06 09:20:54;;;;;;;;;;;;;;;20.54;48.10;100908.09;5127212;28;20026;-34
2022/11/06 09:23:19;;;;;;;;;;;;;;;20.53;48.72;100898.16;5127899;28;20014;-34
2022/11/06 09:25:45;;;;;;;;;;;;;;;20.54;48.85;100899.78;5128197;28;20000;-34
2022/11/06 09:28:10;;;;;;;;;;;;;;;20.54;48.83;100899.78;5129808;28;19923;-34
2022/11/06 09:30:36;;;;;;;;;;;;;;;20.53;48.91;100887.91;5128074;28;20287;-34
2022/11/06 09:33:02;;;;;;;;;;;;;;;20.53;48.74;100887.09;5125822;28;19924;-34
2022/11/06 09:35:28;;;;;;;;;;;;;;;20.53;48.77;100876.84;5129886;28;19934;-34
2022/11/06 09:37:53;;;;;;;;;;;;;;;20.54;48.79;100872.13;5128074;28;20010;-34
2022/11/06 09:42:57;;;;;;;;;;;;;;;20.53;48.77;100868.53;5173261;27;19929;-34
2022/11/06 09:45:23;;;;;;;;;;;;;;;20.53;48.81;100873.25;5156789;27;20038;-34
2022/11/06 09:47:50;;;;;;;;;;;;;;;20.54;48.78;100866.59;5141412;27;20409;-33
2022/11/06 09:50:17;;;;;;;;;;;;;;;20.54;48.77;100869.38;5158568;27;20017;-34
2022/11/06 09:52:44;;;;;;;;;;;;;;;20.53;48.81;100853.88;5158873;27;19973;-34
2022/11/06 09:55:15;;;;;;;;;;;;;;;20.52;48.92;100858.59;5142815;27;19935;-34
2022/11/06 09:58:01;;;;;;;;;;;;;;;20.53;48.85;100863.00;5114551;27;19923;-34
2022/11/06 10:00:26;;;;;;;;;;;;;;;20.53;48.88;100859.41;5120807;27;20019;-34
2022/11/06 10:03:00;;;;;;;;;;;;;;;20.54;48.93;100863.81;5133407;27;20309;-34
2022/11/06 10:05:34;;;;;;;;;;;;;;;20.54;48.87;100861.06;5129189;27;19970;-34
2022/11/06 10:08:01;;;;;;;;;;;;;;;20.53;48.95;100848.34;5139067;27;20386;-33
2022/11/06 10:10:29;;;;;;;;;;;;;;;20.55;48.87;100854.41;5115626;27;21618;-34
2022/11/06 10:13:01;;;;;;;;;;;;;;;20.54;48.63;100844.47;5115091;27;20012;-34
2022/11/06 10:15:27;;;;;;;;;;;;;;;20.54;48.86;100844.47;5112323;27;20022;-34
2022/11/06 10:17:56;;;;;;;;;;;;;;;20.53;48.91;100834.53;5132425;27;20027;-34
2022/11/06 10:20:25;;;;;;;;;;;;;;;20.53;48.76;100829.81;5133829;27;20023;-34
2022/11/06 10:23:12;;;;;;;;;;;;;;;20.53;48.84;100834.53;5130828;27;19923;-34
2022/11/06 10:25:42;;;;;;;;;;;;;;;20.53;48.78;100829.81;5119101;27;19975;-34
2022/11/06 10:28:13;;;;;;;;;;;;;;;20.54;48.77;100827.88;5117211;27;20018;-34
2022/11/06 10:30:44;;;;;;;;;;;;;;;20.54;48.76;100836.16;5137393;27;20012;-34
2022/11/06 10:33:12;;;;;;;;;;;;;;;20.53;48.52;100818.75;5129042;27;20022;-34
2022/11/06 10:35:40;;;;;;;;;;;;;;;20.53;48.82;100815.16;5130882;27;20286;-34
2022/11/06 10:38:08;;;;;;;;;;;;;;;20.53;48.88;100810.44;5136002;27;20014;-35
2022/11/06 10:40:34;;;;;;;;;;;;;;;20.53;48.82;100815.16;5129281;27;20168;-34
2022/11/06 10:43:04;;;;;;;;;;;;;;;20.53;48.96;100795.78;5135439;27;19932;-34
2022/11/06 10:45:30;;;;;;;;;;;;;;;20.53;48.77;100791.06;5133599;27;20499;-34
2022/11/06 10:48:02;;;;;;;;;;;;;;;20.53;48.98;100793.03;5133787;27;19931;-34
2022/11/06 10:50:31;;;;;;;;;;;;;;;20.53;48.60;100790.25;5133483;27;19975;-34
2022/11/06 10:52:58;;;;;;;;;;;;;;;20.53;48.67;100781.97;5126351;27;20018;-34
2022/11/06 10:55:29;;;;;;;;;;;;;;;20.53;48.80;100777.25;5117431;27;19997;-34
2022/11/06 10:57:57;;;;;;;;;;;;;;;20.53;48.84;100770.88;5120130;28;19963;-34
2022/11/06 11:00:23;;;;;;;;;;;;;;;20.53;48.72;100784.72;5118875;27;19971;-34
2022/11/06 11:02:50;;;;;;;;;;;;;;;20.53;48.88;100779.19;5118366;27;20313;-34
2022/11/06 11:05:16;;;;;;;;;;;;;;;20.52;48.83;100772.84;5122314;27;20010;-34
2022/11/06 11:07:42;;;;;;;;;;;;;;;20.53;48.95;100751.53;5121415;28;19962;-34
2022/11/06 11:10:24;;;;;;;;;;;;;;;20.52;48.80;100764.53;5120744;28;19927;-34
2022/11/06 11:12:51;;;;;;;;;;;;;;;20.53;48.94;100748.75;5118206;28;19932;-34
2022/11/06 11:15:17;;;;;;;;;;;;;;;20.52;48.98;100745.16;5105405;27;19930;-34
2022/11/06 11:17:42;;;;;;;;;;;;;;;20.53;48.94;100755.13;5100597;28;19960;-34
2022/11/06 11:20:28;;;;;;;;;;;;;;;20.53;48.88;100746.00;5117437;28;19942;-34
2022/11/06 11:23:03;;;;;;;;;;;;;;;20.52;48.83;100749.88;5107382;28;19974;-34
2022/11/06 11:25:29;;;;;;;;;;;;;;;20.53;48.74;100743.22;5104760;27;20375;-34
2022/11/06 11:27:54;;;;;;;;;;;;;;;20.52;48.95;100730.53;5125188;27;19935;-34
2022/11/06 11:30:22;;;;;;;;;;;;;;;20.52;48.90;100738.81;5121797;27;19935;-34
2022/11/06 11:32:48;;;;;;;;;;;;;;;20.52;48.70;100734.09;5119858;28;19974;-34
2022/11/06 11:35:15;;;;;;;;;;;;;;;20.53;48.96;100740.47;5115927;28;19946;-34
2022/11/06 11:37:40;;;;;;;;;;;;;;;20.52;48.80;100731.34;5124755;27;20029;-34
2022/11/06 11:40:26;;;;;;;;;;;;;;;20.53;48.90;100723.88;5121211;27;20295;-33
2022/11/06 11:42:51;;;;;;;;;;;;;;;20.51;48.84;100707.56;5103853;28;20449;-34
2022/11/06 11:45:18;;;;;;;;;;;;;;;20.52;48.70;100698.16;5117251;27;20391;-34
2022/11/06 11:47:46;;;;;;;;;;;;;;;20.52;48.78;100698.16;5102493;27;20018;-34
2022/11/06 11:50:28;;;;;;;;;;;;;;;20.52;48.90;100683.50;5097809;28;20359;-34
2022/11/06 11:52:55;;;;;;;;;;;;;;;20.52;48.87;100676.00;5099060;28;19971;-34
2022/11/06 11:55:22;;;;;;;;;;;;;;;20.51;48.76;100663.31;5115360;28;20003;-34
2022/11/06 11:57:48;;;;;;;;;;;;;;;20.52;48.95;100658.59;5120530;27;20235;-34
2022/11/06 12:00:16;;;;;;;;;;;;;;;20.53;48.65;100643.63;5094620;28;20486;-34
2022/11/06 12:02:42;;;;;;;;;;;;;;;20.52;48.95;100648.34;5127180;27;20369;-34
2022/11/06 12:05:15;;;;;;;;;;;;;;;20.52;48.75;100637.28;5101203;28;19930;-34
2022/11/06 12:07:42;;;;;;;;;;;;;;;20.52;48.98;100619.88;5114928;27;20367;-34
2022/11/06 12:10:31;;;;;;;;;;;;;;;20.52;48.54;100620.69;5102436;28;19937;-34
2022/11/06 12:12:57;;;;;;;;;;;;;;;20.52;48.98;100625.41;5104865;28;20061;-34
2022/11/06 12:15:29;;;;;;;;;;;;;;;20.52;48.88;100611.56;5102098;28;20426;-34
2022/11/06 12:18:02;;;;;;;;;;;;;;;20.52;48.99;100608.81;5095020;28;19981;-34
2022/11/06 12:20:39;;;;;;;;;;;;;;;20.52;48.81;100617.09;5116543;28;20706;-34
2022/11/06 12:23:05;;;;;;;;;;;;;;;20.52;48.83;100597.72;5103360;28;19967;-34
2022/11/06 12:25:38;;;;;;;;;;;;;;;20.51;48.89;100594.16;5118079;27;20006;-34
2022/11/06 12:28:05;;;;;;;;;;;;;;;20.50;48.98;100603.53;5100330;28;20158;-34
2022/11/06 12:30:31;;;;;;;;;;;;;;;20.52;48.79;100608.81;5118807;27;20304;-34
2022/11/06 12:32:59;;;;;;;;;;;;;;;20.52;48.91;100606.03;5117163;28;19974;-34
2022/11/06 12:35:29;;;;;;;;;;;;;;;20.51;48.96;100590.56;5118208;28;19959;-34
2022/11/06 12:38:15;;;;;;;;;;;;;;;20.51;48.84;100569.25;5118368;27;20023;-34
2022/11/06 12:40:44;;;;;;;;;;;;;;;20.51;48.74;100577.56;5107512;27;20002;-34
2022/11/06 12:43:12;;;;;;;;;;;;;;;20.52;48.98;100572.84;5118531;28;19923;-34
2022/11/06 12:45:42;;;;;;;;;;;;;;;20.52;48.92;100559.81;5112380;27;19969;-34
2022/11/06 12:48:28;;;;;;;;;;;;;;;20.52;48.83;100559.81;5116318;28;20057;-34
2022/11/06 12:50:57;;;;;;;;;;;;;;;20.52;48.95;100556.25;5107183;28;19996;-34
2022/11/06 12:53:27;;;;;;;;;;;;;;;20.52;48.97;100567.31;5116898;27;20024;-34
2022/11/06 12:55:57;;;;;;;;;;;;;;;20.52;48.99;100570.88;5116134;27;20010;-34
2022/11/06 12:58:27;;;;;;;;;;;;;;;20.52;48.92;100573.66;5113836;28;19966;-34
2022/11/06 13:01:03;;;;;;;;;;;;;;;20.52;48.97;100559.00;5120443;27;20363;-34